sensor_id;sensor_type;location;lat;lon;timestamp;temperature;humidity
78463;SHT31;67756;51.982;5.648;2023-03-01T00:02:09;4.8;45.3
78463;SHT31;67756;51.982;5.648;2023-03-01T00:04:38;4.8;45.2
78463;SHT31;67756;51.982;5.648;2023-03-01T00:07:08;4.7;45.3
78463;SHT31;67756;51.982;5.648;2023-03-01T00:09:38;4.7;45.8
78463;SHT31;67756;51.982;5.648;2023-03-01T00:12:07;4.6;45.3
78463;SHT31;67756;51.982;5.648;2023-03-01T00:14:38;4.6;45.6
78463;SHT31;67756;51.982;5.648;2023-03-01T00:17:08;4.6;45.7
78463;SHT31;67756;51.982;5.648;2023-03-01T00:19:38;4.5;45.9
78463;SHT31;67756;51.982;5.648;2023-03-01T00:22:07;4.5;46.1
78463;SHT31;67756;51.982;5.648;2023-03-01T00:24:37;4.5;45.5
78463;SHT31;67756;51.982;5.648;2023-03-01T00:27:06;4.5;46.5
78463;SHT31;67756;51.982;5.648;2023-03-01T00:29:37;4.5;46.4
78463;SHT31;67756;51.982;5.648;2023-03-01T00:32:06;4.4;46.2
78463;SHT31;67756;51.982;5.648;2023-03-01T00:34:36;4.4;45.5
78463;SHT31;67756;51.982;5.648;2023-03-01T00:37:06;4.4;46.0
78463;SHT31;67756;51.982;5.648;2023-03-01T00:39:35;4.4;46.6
78463;SHT31;67756;51.982;5.648;2023-03-01T00:42:05;4.3;45.9
78463;SHT31;67756;51.982;5.648;2023-03-01T00:44:35;4.3;45.6
78463;SHT31;67756;51.982;5.648;2023-03-01T00:47:04;4.3;46.6
78463;SHT31;67756;51.982;5.648;2023-03-01T00:49:34;4.3;46.7
78463;SHT31;67756;51.982;5.648;2023-03-01T00:52:03;4.2;46.9
78463;SHT31;67756;51.982;5.648;2023-03-01T00:54:33;4.2;47.0
78463;SHT31;67756;51.982;5.648;2023-03-01T00:57:02;4.2;47.1
78463;SHT31;67756;51.982;5.648;2023-03-01T00:59:32;4.2;47.4
78463;SHT31;67756;51.982;5.648;2023-03-01T01:02:02;4.2;46.6
78463;SHT31;67756;51.982;5.648;2023-03-01T01:04:31;4.2;47.4
78463;SHT31;67756;51.982;5.648;2023-03-01T01:07:01;4.2;47.3
78463;SHT31;67756;51.982;5.648;2023-03-01T01:09:30;4.2;46.5
78463;SHT31;67756;51.982;5.648;2023-03-01T01:12:00;4.2;46.5
78463;SHT31;67756;51.982;5.648;2023-03-01T01:14:30;4.2;46.5
78463;SHT31;67756;51.982;5.648;2023-03-01T01:17:00;4.2;47.0
78463;SHT31;67756;51.982;5.648;2023-03-01T01:19:32;4.2;47.3
78463;SHT31;67756;51.982;5.648;2023-03-01T01:22:01;4.2;47.3
78463;SHT31;67756;51.982;5.648;2023-03-01T01:24:33;4.2;46.8
78463;SHT31;67756;51.982;5.648;2023-03-01T01:27:02;4.2;47.3
78463;SHT31;67756;51.982;5.648;2023-03-01T01:29:33;4.1;47.0
78463;SHT31;67756;51.982;5.648;2023-03-01T01:32:03;4.1;47.0
78463;SHT31;67756;51.982;5.648;2023-03-01T01:34:33;4.0;47.0
78463;SHT31;67756;51.982;5.648;2023-03-01T01:37:02;4.0;47.3
78463;SHT31;67756;51.982;5.648;2023-03-01T01:39:35;3.9;47.4
78463;SHT31;67756;51.982;5.648;2023-03-01T01:42:05;3.9;47.1
78463;SHT31;67756;51.982;5.648;2023-03-01T01:44:35;3.8;47.5
78463;SHT31;67756;51.982;5.648;2023-03-01T01:47:07;3.8;47.8
78463;SHT31;67756;51.982;5.648;2023-03-01T01:49:44;3.7;47.4
78463;SHT31;67756;51.982;5.648;2023-03-01T01:52:18;3.7;47.2
78463;SHT31;67756;51.982;5.648;2023-03-01T01:54:53;3.7;47.5
78463;SHT31;67756;51.982;5.648;2023-03-01T01:57:32;3.6;47.7
78463;SHT31;67756;51.982;5.648;2023-03-01T02:00:07;3.6;47.9
78463;SHT31;67756;51.982;5.648;2023-03-01T02:02:38;3.6;47.9
78463;SHT31;67756;51.982;5.648;2023-03-01T02:05:15;3.5;48.9
78463;SHT31;67756;51.982;5.648;2023-03-01T02:07:48;3.5;48.4
78463;SHT31;67756;51.982;5.648;2023-03-01T02:10:19;3.5;48.7
78463;SHT31;67756;51.982;5.648;2023-03-01T02:12:49;3.5;48.2
78463;SHT31;67756;51.982;5.648;2023-03-01T02:15:19;3.4;49.0
78463;SHT31;67756;51.982;5.648;2023-03-01T02:17:49;3.4;49.1
78463;SHT31;67756;51.982;5.648;2023-03-01T02:20:30;3.4;48.8
78463;SHT31;67756;51.982;5.648;2023-03-01T02:23:02;3.3;48.6
78463;SHT31;67756;51.982;5.648;2023-03-01T02:25:37;3.3;48.9
78463;SHT31;67756;51.982;5.648;2023-03-01T02:28:24;3.3;48.9
78463;SHT31;67756;51.982;5.648;2023-03-01T02:30:54;3.3;48.9
78463;SHT31;67756;51.982;5.648;2023-03-01T02:33:43;3.2;49.7
78463;SHT31;67756;51.982;5.648;2023-03-01T02:36:19;3.2;49.5
78463;SHT31;67756;51.982;5.648;2023-03-01T02:38:52;3.2;49.0
78463;SHT31;67756;51.982;5.648;2023-03-01T02:41:27;3.2;49.3
78463;SHT31;67756;51.982;5.648;2023-03-01T02:43:58;3.2;49.9
78463;SHT31;67756;51.982;5.648;2023-03-01T02:46:27;3.1;49.4
78463;SHT31;67756;51.982;5.648;2023-03-01T02:48:58;3.1;49.8
78463;SHT31;67756;51.982;5.648;2023-03-01T02:51:48;3.1;50.0
78463;SHT31;67756;51.982;5.648;2023-03-01T02:54:28;3.1;50.1
78463;SHT31;67756;51.982;5.648;2023-03-01T02:56:58;3.0;49.9
78463;SHT31;67756;51.982;5.648;2023-03-01T02:59:32;3.0;50.1
78463;SHT31;67756;51.982;5.648;2023-03-01T03:02:07;3.0;50.1
78463;SHT31;67756;51.982;5.648;2023-03-01T03:04:36;3.0;50.0
78463;SHT31;67756;51.982;5.648;2023-03-01T03:07:06;3.0;49.9
78463;SHT31;67756;51.982;5.648;2023-03-01T03:09:35;3.0;50.3
78463;SHT31;67756;51.982;5.648;2023-03-01T03:12:05;3.0;50.0
78463;SHT31;67756;51.982;5.648;2023-03-01T03:14:37;3.0;50.5
78463;SHT31;67756;51.982;5.648;2023-03-01T03:17:06;2.9;50.3
78463;SHT31;67756;51.982;5.648;2023-03-01T03:19:38;2.9;50.1
78463;SHT31;67756;51.982;5.648;2023-03-01T03:22:07;2.9;50.2
78463;SHT31;67756;51.982;5.648;2023-03-01T03:24:37;2.9;50.4
78463;SHT31;67756;51.982;5.648;2023-03-01T03:27:07;2.9;50.6
78463;SHT31;67756;51.982;5.648;2023-03-01T03:29:39;2.8;50.4
78463;SHT31;67756;51.982;5.648;2023-03-01T03:32:08;2.8;50.4
78463;SHT31;67756;51.982;5.648;2023-03-01T03:34:38;2.8;50.3
78463;SHT31;67756;51.982;5.648;2023-03-01T03:37:08;2.8;50.7
78463;SHT31;67756;51.982;5.648;2023-03-01T03:39:42;2.8;50.9
78463;SHT31;67756;51.982;5.648;2023-03-01T03:42:12;2.8;50.7
78463;SHT31;67756;51.982;5.648;2023-03-01T03:44:41;2.7;50.9
78463;SHT31;67756;51.982;5.648;2023-03-01T03:47:11;2.7;50.3
78463;SHT31;67756;51.982;5.648;2023-03-01T03:49:40;2.7;50.3
78463;SHT31;67756;51.982;5.648;2023-03-01T03:52:10;2.7;50.9
78463;SHT31;67756;51.982;5.648;2023-03-01T03:54:41;2.7;50.5
78463;SHT31;67756;51.982;5.648;2023-03-01T03:57:13;2.7;50.8
78463;SHT31;67756;51.982;5.648;2023-03-01T03:59:42;2.7;50.7
78463;SHT31;67756;51.982;5.648;2023-03-01T04:02:12;2.7;50.8
78463;SHT31;67756;51.982;5.648;2023-03-01T04:04:46;2.7;50.9
78463;SHT31;67756;51.982;5.648;2023-03-01T04:07:17;2.7;50.6
78463;SHT31;67756;51.982;5.648;2023-03-01T04:09:46;2.7;50.8
78463;SHT31;67756;51.982;5.648;2023-03-01T04:12:16;2.7;51.3
78463;SHT31;67756;51.982;5.648;2023-03-01T04:14:50;2.6;51.2
78463;SHT31;67756;51.982;5.648;2023-03-01T04:17:22;2.7;51.1
78463;SHT31;67756;51.982;5.648;2023-03-01T04:19:52;2.7;50.7
78463;SHT31;67756;51.982;5.648;2023-03-01T04:22:21;2.7;50.9
78463;SHT31;67756;51.982;5.648;2023-03-01T04:24:56;2.7;50.5
78463;SHT31;67756;51.982;5.648;2023-03-01T04:27:27;2.7;50.6
78463;SHT31;67756;51.982;5.648;2023-03-01T04:29:56;2.7;51.0
78463;SHT31;67756;51.982;5.648;2023-03-01T04:32:26;2.7;50.6
78463;SHT31;67756;51.982;5.648;2023-03-01T04:34:55;2.7;50.5
78463;SHT31;67756;51.982;5.648;2023-03-01T04:37:25;2.7;50.7
78463;SHT31;67756;51.982;5.648;2023-03-01T04:39:55;2.6;50.6
78463;SHT31;67756;51.982;5.648;2023-03-01T04:42:24;2.6;51.1
78463;SHT31;67756;51.982;5.648;2023-03-01T04:44:54;2.6;51.4
78463;SHT31;67756;51.982;5.648;2023-03-01T04:47:23;2.6;51.3
78463;SHT31;67756;51.982;5.648;2023-03-01T04:49:55;2.5;51.1
78463;SHT31;67756;51.982;5.648;2023-03-01T04:52:24;2.5;51.1
78463;SHT31;67756;51.982;5.648;2023-03-01T04:54:54;2.5;51.7
78463;SHT31;67756;51.982;5.648;2023-03-01T04:57:23;2.5;50.9
78463;SHT31;67756;51.982;5.648;2023-03-01T04:59:53;2.5;50.9
78463;SHT31;67756;51.982;5.648;2023-03-01T05:02:23;2.5;51.2
78463;SHT31;67756;51.982;5.648;2023-03-01T05:04:52;2.5;50.9
78463;SHT31;67756;51.982;5.648;2023-03-01T05:07:25;2.5;51.2
78463;SHT31;67756;51.982;5.648;2023-03-01T05:09:56;2.5;51.7
78463;SHT31;67756;51.982;5.648;2023-03-01T05:12:26;2.5;50.8
78463;SHT31;67756;51.982;5.648;2023-03-01T05:14:55;2.4;50.7
78463;SHT31;67756;51.982;5.648;2023-03-01T05:17:25;2.4;51.0
78463;SHT31;67756;51.982;5.648;2023-03-01T05:19:55;2.4;51.1
78463;SHT31;67756;51.982;5.648;2023-03-01T05:22:27;2.4;50.8
78463;SHT31;67756;51.982;5.648;2023-03-01T05:24:56;2.4;51.6
78463;SHT31;67756;51.982;5.648;2023-03-01T05:27:26;2.4;51.3
78463;SHT31;67756;51.982;5.648;2023-03-01T05:29:57;2.4;51.2
78463;SHT31;67756;51.982;5.648;2023-03-01T05:32:28;2.3;51.4
78463;SHT31;67756;51.982;5.648;2023-03-01T05:34:59;2.3;50.9
78463;SHT31;67756;51.982;5.648;2023-03-01T05:37:28;2.3;51.3
78463;SHT31;67756;51.982;5.648;2023-03-01T05:39:58;2.3;51.4
78463;SHT31;67756;51.982;5.648;2023-03-01T05:42:29;2.3;51.5
78463;SHT31;67756;51.982;5.648;2023-03-01T05:44:59;2.2;51.5
78463;SHT31;67756;51.982;5.648;2023-03-01T05:47:28;2.2;51.7
78463;SHT31;67756;51.982;5.648;2023-03-01T05:49:59;2.2;51.7
78463;SHT31;67756;51.982;5.648;2023-03-01T05:52:28;2.2;52.0
78463;SHT31;67756;51.982;5.648;2023-03-01T05:54:58;2.2;52.0
78463;SHT31;67756;51.982;5.648;2023-03-01T05:57:29;2.1;52.2
78463;SHT31;67756;51.982;5.648;2023-03-01T05:59:59;2.1;52.3
78463;SHT31;67756;51.982;5.648;2023-03-01T06:02:28;2.1;52.5
78463;SHT31;67756;51.982;5.648;2023-03-01T06:05:00;2.1;52.7
78463;SHT31;67756;51.982;5.648;2023-03-01T06:07:29;2.1;52.8
78463;SHT31;67756;51.982;5.648;2023-03-01T06:09:59;2.0;52.7
78463;SHT31;67756;51.982;5.648;2023-03-01T06:12:32;2.0;52.4
78463;SHT31;67756;51.982;5.648;2023-03-01T06:15:03;2.0;52.8
78463;SHT31;67756;51.982;5.648;2023-03-01T06:17:34;2.0;53.0
78463;SHT31;67756;51.982;5.648;2023-03-01T06:20:07;2.0;53.0
78463;SHT31;67756;51.982;5.648;2023-03-01T06:22:38;2.0;52.6
78463;SHT31;67756;51.982;5.648;2023-03-01T06:25:09;2.0;52.4
78463;SHT31;67756;51.982;5.648;2023-03-01T06:27:40;2.0;53.0
78463;SHT31;67756;51.982;5.648;2023-03-01T06:30:14;1.9;53.2
78463;SHT31;67756;51.982;5.648;2023-03-01T06:32:48;1.9;53.3
78463;SHT31;67756;51.982;5.648;2023-03-01T06:35:20;1.9;53.8
78463;SHT31;67756;51.982;5.648;2023-03-01T06:37:49;1.9;53.7
78463;SHT31;67756;51.982;5.648;2023-03-01T06:40:21;1.9;53.5
78463;SHT31;67756;51.982;5.648;2023-03-01T06:42:51;1.9;53.2
78463;SHT31;67756;51.982;5.648;2023-03-01T06:45:21;1.9;53.8
78463;SHT31;67756;51.982;5.648;2023-03-01T06:47:50;1.9;54.2
78463;SHT31;67756;51.982;5.648;2023-03-01T06:50:20;1.9;54.2
78463;SHT31;67756;51.982;5.648;2023-03-01T06:52:57;1.9;54.1
78463;SHT31;67756;51.982;5.648;2023-03-01T06:55:27;2.0;53.4
78463;SHT31;67756;51.982;5.648;2023-03-01T06:57:57;2.0;54.0
78463;SHT31;67756;51.982;5.648;2023-03-01T07:00:29;2.0;54.1
78463;SHT31;67756;51.982;5.648;2023-03-01T07:03:01;2.0;54.2
78463;SHT31;67756;51.982;5.648;2023-03-01T07:05:32;2.0;53.9
78463;SHT31;67756;51.982;5.648;2023-03-01T07:08:04;2.0;53.3
78463;SHT31;67756;51.982;5.648;2023-03-01T07:10:34;2.0;54.2
78463;SHT31;67756;51.982;5.648;2023-03-01T07:13:04;2.0;54.8
78463;SHT31;67756;51.982;5.648;2023-03-01T07:15:35;2.0;54.5
78463;SHT31;67756;51.982;5.648;2023-03-01T07:18:04;2.1;54.6
78463;SHT31;67756;51.982;5.648;2023-03-01T07:20:34;2.1;55.0
78463;SHT31;67756;51.982;5.648;2023-03-01T07:23:05;2.1;55.0
78463;SHT31;67756;51.982;5.648;2023-03-01T07:25:35;2.2;55.5
78463;SHT31;67756;51.982;5.648;2023-03-01T07:28:05;2.2;55.7
78463;SHT31;67756;51.982;5.648;2023-03-01T07:30:35;2.3;55.1
78463;SHT31;67756;51.982;5.648;2023-03-01T07:33:04;2.4;55.1
78463;SHT31;67756;51.982;5.648;2023-03-01T07:35:35;2.4;55.5
78463;SHT31;67756;51.982;5.648;2023-03-01T07:38:04;2.4;56.0
78463;SHT31;67756;51.982;5.648;2023-03-01T07:40:34;2.5;55.5
78463;SHT31;67756;51.982;5.648;2023-03-01T07:43:04;2.5;55.8
78463;SHT31;67756;51.982;5.648;2023-03-01T07:45:34;2.6;56.4
78463;SHT31;67756;51.982;5.648;2023-03-01T07:48:03;2.6;56.6
78463;SHT31;67756;51.982;5.648;2023-03-01T07:50:33;2.7;55.6
78463;SHT31;67756;51.982;5.648;2023-03-01T07:53:04;2.7;56.2
78463;SHT31;67756;51.982;5.648;2023-03-01T07:55:34;2.8;56.3
78463;SHT31;67756;51.982;5.648;2023-03-01T07:58:04;2.8;56.1
78463;SHT31;67756;51.982;5.648;2023-03-01T08:00:35;2.9;56.0
78463;SHT31;67756;51.982;5.648;2023-03-01T08:03:05;3.0;56.1
78463;SHT31;67756;51.982;5.648;2023-03-01T08:05:36;3.0;56.8
78463;SHT31;67756;51.982;5.648;2023-03-01T08:08:06;3.1;55.9
78463;SHT31;67756;51.982;5.648;2023-03-01T08:10:36;3.2;56.4
78463;SHT31;67756;51.982;5.648;2023-03-01T08:13:05;3.3;56.4
78463;SHT31;67756;51.982;5.648;2023-03-01T08:15:35;3.4;56.2
78463;SHT31;67756;51.982;5.648;2023-03-01T08:18:04;3.5;56.1
78463;SHT31;67756;51.982;5.648;2023-03-01T08:20:36;3.6;56.0
78463;SHT31;67756;51.982;5.648;2023-03-01T08:23:05;3.7;54.5
78463;SHT31;67756;51.982;5.648;2023-03-01T08:25:35;3.7;54.8
78463;SHT31;67756;51.982;5.648;2023-03-01T08:28:05;3.8;54.0
78463;SHT31;67756;51.982;5.648;2023-03-01T08:30:35;3.9;53.2
78463;SHT31;67756;51.982;5.648;2023-03-01T08:33:04;4.0;54.4
78463;SHT31;67756;51.982;5.648;2023-03-01T08:35:34;4.1;54.4
78463;SHT31;67756;51.982;5.648;2023-03-01T08:38:05;4.1;53.7
78463;SHT31;67756;51.982;5.648;2023-03-01T08:40:35;4.2;52.9
78463;SHT31;67756;51.982;5.648;2023-03-01T08:43:04;4.3;52.0
78463;SHT31;67756;51.982;5.648;2023-03-01T08:45:34;4.4;51.5
78463;SHT31;67756;51.982;5.648;2023-03-01T08:48:03;4.5;51.2
78463;SHT31;67756;51.982;5.648;2023-03-01T08:50:33;4.6;50.5
78463;SHT31;67756;51.982;5.648;2023-03-01T08:53:02;4.6;51.1
78463;SHT31;67756;51.982;5.648;2023-03-01T08:55:32;4.7;50.3
78463;SHT31;67756;51.982;5.648;2023-03-01T08:58:01;4.7;50.4
78463;SHT31;67756;51.982;5.648;2023-03-01T09:00:30;4.8;50.7
78463;SHT31;67756;51.982;5.648;2023-03-01T09:03:02;4.9;50.1
78463;SHT31;67756;51.982;5.648;2023-03-01T09:05:33;4.9;50.2
78463;SHT31;67756;51.982;5.648;2023-03-01T09:08:04;5.0;50.0
78463;SHT31;67756;51.982;5.648;2023-03-01T09:10:39;5.1;50.7
78463;SHT31;67756;51.982;5.648;2023-03-01T09:13:08;5.1;50.1
78463;SHT31;67756;51.982;5.648;2023-03-01T09:15:39;5.2;50.4
78463;SHT31;67756;51.982;5.648;2023-03-01T09:18:08;5.3;49.4
78463;SHT31;67756;51.982;5.648;2023-03-01T09:20:38;5.3;49.0
78463;SHT31;67756;51.982;5.648;2023-03-01T09:23:08;5.4;49.6
78463;SHT31;67756;51.982;5.648;2023-03-01T09:25:38;5.5;48.3
78463;SHT31;67756;51.982;5.648;2023-03-01T09:28:07;5.6;48.8
78463;SHT31;67756;51.982;5.648;2023-03-01T09:30:40;5.6;48.3
78463;SHT31;67756;51.982;5.648;2023-03-01T09:33:09;5.7;48.6
78463;SHT31;67756;51.982;5.648;2023-03-01T09:35:42;5.8;48.3
78463;SHT31;67756;51.982;5.648;2023-03-01T09:38:14;5.8;47.1
78463;SHT31;67756;51.982;5.648;2023-03-01T09:40:44;5.9;47.3
78463;SHT31;67756;51.982;5.648;2023-03-01T09:43:20;5.9;47.3
78463;SHT31;67756;51.982;5.648;2023-03-01T09:45:54;6.0;46.6
78463;SHT31;67756;51.982;5.648;2023-03-01T09:48:27;6.1;45.8
78463;SHT31;67756;51.982;5.648;2023-03-01T09:51:06;6.1;44.7
78463;SHT31;67756;51.982;5.648;2023-03-01T09:53:38;6.2;46.1
78463;SHT31;67756;51.982;5.648;2023-03-01T09:56:17;6.2;44.5
78463;SHT31;67756;51.982;5.648;2023-03-01T09:58:54;6.3;45.0
78463;SHT31;67756;51.982;5.648;2023-03-01T10:01:35;6.4;44.8
78463;SHT31;67756;51.982;5.648;2023-03-01T10:04:16;6.4;44.0
78463;SHT31;67756;51.982;5.648;2023-03-01T10:06:55;6.5;42.9
78463;SHT31;67756;51.982;5.648;2023-03-01T10:09:29;6.6;42.3
78463;SHT31;67756;51.982;5.648;2023-03-01T10:12:04;6.7;41.5
78463;SHT31;67756;51.982;5.648;2023-03-01T10:14:40;6.7;42.1
78463;SHT31;67756;51.982;5.648;2023-03-01T10:17:23;6.8;42.4
78463;SHT31;67756;51.982;5.648;2023-03-01T10:19:55;7.1;41.7
78463;SHT31;67756;51.982;5.648;2023-03-01T10:22:33;7.3;41.8
78463;SHT31;67756;51.982;5.648;2023-03-01T10:25:03;7.6;39.5
78463;SHT31;67756;51.982;5.648;2023-03-01T10:27:42;7.9;39.3
78463;SHT31;67756;51.982;5.648;2023-03-01T10:30:20;8.1;39.4
78463;SHT31;67756;51.982;5.648;2023-03-01T10:32:53;8.3;38.5
78463;SHT31;67756;51.982;5.648;2023-03-01T10:35:26;8.4;38.1
78463;SHT31;67756;51.982;5.648;2023-03-01T10:38:03;8.6;37.1
78463;SHT31;67756;51.982;5.648;2023-03-01T10:40:41;8.8;36.8
78463;SHT31;67756;51.982;5.648;2023-03-01T10:43:12;9.0;37.2
78463;SHT31;67756;51.982;5.648;2023-03-01T10:45:41;9.2;35.9
78463;SHT31;67756;51.982;5.648;2023-03-01T10:48:15;9.5;35.0
78463;SHT31;67756;51.982;5.648;2023-03-01T10:50:47;9.7;34.9
78463;SHT31;67756;51.982;5.648;2023-03-01T10:53:26;9.8;34.7
78463;SHT31;67756;51.982;5.648;2023-03-01T10:56:00;10.0;34.7
78463;SHT31;67756;51.982;5.648;2023-03-01T10:58:32;10.1;35.0
78463;SHT31;67756;51.982;5.648;2023-03-01T11:01:04;10.1;33.2
78463;SHT31;67756;51.982;5.648;2023-03-01T11:03:37;10.2;33.2
78463;SHT31;67756;51.982;5.648;2023-03-01T11:06:21;10.2;33.2
78463;SHT31;67756;51.982;5.648;2023-03-01T11:08:52;10.2;33.2
78463;SHT31;67756;51.982;5.648;2023-03-01T11:11:25;10.1;34.1
78463;SHT31;67756;51.982;5.648;2023-03-01T11:14:01;10.1;34.2
78463;SHT31;67756;51.982;5.648;2023-03-01T11:16:38;10.2;34.9
78463;SHT31;67756;51.982;5.648;2023-03-01T11:19:21;10.2;34.8
78463;SHT31;67756;51.982;5.648;2023-03-01T11:22:02;10.3;34.8
78463;SHT31;67756;51.982;5.648;2023-03-01T11:24:43;10.5;34.2
78463;SHT31;67756;51.982;5.648;2023-03-01T11:27:21;10.8;35.2
78463;SHT31;67756;51.982;5.648;2023-03-01T11:29:57;11.0;33.1
78463;SHT31;67756;51.982;5.648;2023-03-01T11:32:34;11.4;34.2
78463;SHT31;67756;51.982;5.648;2023-03-01T11:35:13;11.9;32.3
78463;SHT31;67756;51.982;5.648;2023-03-01T11:37:55;12.3;29.8
78463;SHT31;67756;51.982;5.648;2023-03-01T11:40:33;12.6;29.4
78463;SHT31;67756;51.982;5.648;2023-03-01T11:43:15;12.9;28.4
78463;SHT31;67756;51.982;5.648;2023-03-01T11:46:02;13.2;28.0
78463;SHT31;67756;51.982;5.648;2023-03-01T11:48:47;13.4;27.9
78463;SHT31;67756;51.982;5.648;2023-03-01T11:51:25;13.6;27.8
78463;SHT31;67756;51.982;5.648;2023-03-01T11:54:07;13.7;27.5
78463;SHT31;67756;51.982;5.648;2023-03-01T11:56:43;13.8;27.7
78463;SHT31;67756;51.982;5.648;2023-03-01T11:59:41;13.8;28.4
78463;SHT31;67756;51.982;5.648;2023-03-01T12:02:36;13.9;27.9
78463;SHT31;67756;51.982;5.648;2023-03-01T12:06:03;13.9;28.6
78463;SHT31;67756;51.982;5.648;2023-03-01T12:08:41;14.1;29.2
78463;SHT31;67756;51.982;5.648;2023-03-01T12:11:23;14.2;28.4
78463;SHT31;67756;51.982;5.648;2023-03-01T12:14:12;14.5;28.5
78463;SHT31;67756;51.982;5.648;2023-03-01T12:16:59;14.8;27.5
78463;SHT31;67756;51.982;5.648;2023-03-01T12:19:52;15.1;27.7
78463;SHT31;67756;51.982;5.648;2023-03-01T12:22:30;15.4;27.8
78463;SHT31;67756;51.982;5.648;2023-03-01T12:25:15;15.8;26.3
78463;SHT31;67756;51.982;5.648;2023-03-01T12:28:21;16.2;25.9
78463;SHT31;67756;51.982;5.648;2023-03-01T12:31:52;16.6;24.9
78463;SHT31;67756;51.982;5.648;2023-03-01T12:34:46;17.0;24.2
78463;SHT31;67756;51.982;5.648;2023-03-01T12:37:27;17.3;24.3
78463;SHT31;67756;51.982;5.648;2023-03-01T12:40:20;17.5;25.2
78463;SHT31;67756;51.982;5.648;2023-03-01T12:43:06;17.8;23.3
78463;SHT31;67756;51.982;5.648;2023-03-01T12:45:50;18.1;22.9
78463;SHT31;67756;51.982;5.648;2023-03-01T12:48:35;18.3;22.5
78463;SHT31;67756;51.982;5.648;2023-03-01T12:51:10;18.5;23.8
78463;SHT31;67756;51.982;5.648;2023-03-01T12:53:45;18.6;23.0
78463;SHT31;67756;51.982;5.648;2023-03-01T12:56:19;18.9;21.6
78463;SHT31;67756;51.982;5.648;2023-03-01T12:59:02;19.0;21.9
78463;SHT31;67756;51.982;5.648;2023-03-01T13:01:45;19.2;22.7
78463;SHT31;67756;51.982;5.648;2023-03-01T13:04:24;19.4;21.6
78463;SHT31;67756;51.982;5.648;2023-03-01T13:07:11;19.5;22.2
78463;SHT31;67756;51.982;5.648;2023-03-01T13:09:51;19.7;21.6
78463;SHT31;67756;51.982;5.648;2023-03-01T13:12:45;19.9;21.5
78463;SHT31;67756;51.982;5.648;2023-03-01T13:15:32;20.1;21.6
78463;SHT31;67756;51.982;5.648;2023-03-01T13:18:03;20.3;21.5
78463;SHT31;67756;51.982;5.648;2023-03-01T13:20:47;20.5;21.1
78463;SHT31;67756;51.982;5.648;2023-03-01T13:23:26;20.6;20.2
78463;SHT31;67756;51.982;5.648;2023-03-01T13:26:06;20.8;20.7
78463;SHT31;67756;51.982;5.648;2023-03-01T13:28:49;21.0;21.5
78463;SHT31;67756;51.982;5.648;2023-03-01T13:35:42;21.4;20.5
78463;SHT31;67756;51.982;5.648;2023-03-01T13:38:45;21.5;19.1
78463;SHT31;67756;51.982;5.648;2023-03-01T13:41:16;21.6;20.0
78463;SHT31;67756;51.982;5.648;2023-03-01T13:43:47;21.7;19.4
78463;SHT31;67756;51.982;5.648;2023-03-01T13:46:21;21.8;19.2
78463;SHT31;67756;51.982;5.648;2023-03-01T13:48:56;21.9;19.3
78463;SHT31;67756;51.982;5.648;2023-03-01T13:51:28;22.0;18.8
78463;SHT31;67756;51.982;5.648;2023-03-01T13:53:59;22.0;18.9
78463;SHT31;67756;51.982;5.648;2023-03-01T13:56:36;22.1;19.0
78463;SHT31;67756;51.982;5.648;2023-03-01T13:59:14;22.1;19.1
78463;SHT31;67756;51.982;5.648;2023-03-01T14:01:54;22.2;19.5
78463;SHT31;67756;51.982;5.648;2023-03-01T14:04:26;22.2;19.1
78463;SHT31;67756;51.982;5.648;2023-03-01T14:07:10;22.1;18.8
78463;SHT31;67756;51.982;5.648;2023-03-01T14:09:43;22.0;18.3
78463;SHT31;67756;51.982;5.648;2023-03-01T14:12:29;21.7;18.2
78463;SHT31;67756;51.982;5.648;2023-03-01T14:15:06;21.3;18.4
78463;SHT31;67756;51.982;5.648;2023-03-01T14:17:50;20.9;19.6
78463;SHT31;67756;51.982;5.648;2023-03-01T14:20:24;20.7;19.4
78463;SHT31;67756;51.982;5.648;2023-03-01T14:22:58;20.6;20.0
78463;SHT31;67756;51.982;5.648;2023-03-01T14:25:30;20.5;19.7
78463;SHT31;67756;51.982;5.648;2023-03-01T14:28:15;20.4;19.3
78463;SHT31;67756;51.982;5.648;2023-03-01T14:30:48;20.2;19.9
78463;SHT31;67756;51.982;5.648;2023-03-01T14:33:24;20.0;20.3
78463;SHT31;67756;51.982;5.648;2023-03-01T14:35:58;19.8;20.4
78463;SHT31;67756;51.982;5.648;2023-03-01T14:38:33;19.6;21.0
78463;SHT31;67756;51.982;5.648;2023-03-01T14:41:09;19.4;19.3
78463;SHT31;67756;51.982;5.648;2023-03-01T14:43:44;19.2;20.4
78463;SHT31;67756;51.982;5.648;2023-03-01T14:46:25;19.1;19.8
78463;SHT31;67756;51.982;5.648;2023-03-01T14:49:04;18.9;20.8
78463;SHT31;67756;51.982;5.648;2023-03-01T14:51:38;18.8;20.8
78463;SHT31;67756;51.982;5.648;2023-03-01T14:54:23;18.6;21.8
78463;SHT31;67756;51.982;5.648;2023-03-01T14:56:58;18.6;21.9
78463;SHT31;67756;51.982;5.648;2023-03-01T14:59:28;18.5;21.0
78463;SHT31;67756;51.982;5.648;2023-03-01T15:01:59;18.5;21.4
78463;SHT31;67756;51.982;5.648;2023-03-01T15:04:29;18.4;21.5
78463;SHT31;67756;51.982;5.648;2023-03-01T15:07:01;18.4;20.6
78463;SHT31;67756;51.982;5.648;2023-03-01T15:09:34;18.3;20.8
78463;SHT31;67756;51.982;5.648;2023-03-01T15:12:34;18.2;21.4
78463;SHT31;67756;51.982;5.648;2023-03-01T15:15:23;18.0;21.3
78463;SHT31;67756;51.982;5.648;2023-03-01T15:17:59;17.7;21.8
78463;SHT31;67756;51.982;5.648;2023-03-01T15:20:30;17.4;22.0
78463;SHT31;67756;51.982;5.648;2023-03-01T15:23:03;17.2;22.1
78463;SHT31;67756;51.982;5.648;2023-03-01T15:25:33;16.9;23.0
78463;SHT31;67756;51.982;5.648;2023-03-01T15:28:20;16.6;23.7
78463;SHT31;67756;51.982;5.648;2023-03-01T15:30:56;16.5;23.1
78463;SHT31;67756;51.982;5.648;2023-03-01T15:33:35;16.3;22.8
78463;SHT31;67756;51.982;5.648;2023-03-01T15:36:32;16.1;23.6
78463;SHT31;67756;51.982;5.648;2023-03-01T15:39:03;15.9;24.1
78463;SHT31;67756;51.982;5.648;2023-03-01T15:41:46;15.7;24.1
78463;SHT31;67756;51.982;5.648;2023-03-01T15:44:18;15.6;23.8
78463;SHT31;67756;51.982;5.648;2023-03-01T15:46:52;15.4;23.8
78463;SHT31;67756;51.982;5.648;2023-03-01T15:49:31;15.3;24.0
78463;SHT31;67756;51.982;5.648;2023-03-01T15:52:05;15.2;24.2
78463;SHT31;67756;51.982;5.648;2023-03-01T15:54:35;15.1;24.8
78463;SHT31;67756;51.982;5.648;2023-03-01T15:57:09;15.1;24.6
78463;SHT31;67756;51.982;5.648;2023-03-01T15:59:43;15.0;24.4
78463;SHT31;67756;51.982;5.648;2023-03-01T16:02:13;15.0;24.2
78463;SHT31;67756;51.982;5.648;2023-03-01T16:04:42;14.9;24.5
78463;SHT31;67756;51.982;5.648;2023-03-01T16:07:12;14.8;24.6
78463;SHT31;67756;51.982;5.648;2023-03-01T16:09:41;14.7;24.6
78463;SHT31;67756;51.982;5.648;2023-03-01T16:12:14;14.6;24.8
78463;SHT31;67756;51.982;5.648;2023-03-01T16:14:44;14.6;24.7
78463;SHT31;67756;51.982;5.648;2023-03-01T16:17:16;14.4;24.5
78463;SHT31;67756;51.982;5.648;2023-03-01T16:19:45;14.3;25.8
78463;SHT31;67756;51.982;5.648;2023-03-01T16:22:15;14.2;25.0
78463;SHT31;67756;51.982;5.648;2023-03-01T16:24:44;14.1;25.3
78463;SHT31;67756;51.982;5.648;2023-03-01T16:27:14;14.0;25.2
78463;SHT31;67756;51.982;5.648;2023-03-01T16:29:44;13.9;25.6
78463;SHT31;67756;51.982;5.648;2023-03-01T16:32:13;13.8;25.4
78463;SHT31;67756;51.982;5.648;2023-03-01T16:34:43;13.7;26.4
78463;SHT31;67756;51.982;5.648;2023-03-01T16:37:15;13.6;27.2
78463;SHT31;67756;51.982;5.648;2023-03-01T16:39:46;13.5;26.7
78463;SHT31;67756;51.982;5.648;2023-03-01T16:42:19;13.5;27.0
78463;SHT31;67756;51.982;5.648;2023-03-01T16:44:48;13.4;27.9
78463;SHT31;67756;51.982;5.648;2023-03-01T16:47:23;13.3;28.6
78463;SHT31;67756;51.982;5.648;2023-03-01T16:49:53;13.3;28.4
78463;SHT31;67756;51.982;5.648;2023-03-01T16:52:23;13.2;28.3
78463;SHT31;67756;51.982;5.648;2023-03-01T16:54:53;13.2;28.2
78463;SHT31;67756;51.982;5.648;2023-03-01T16:57:23;13.1;27.8
78463;SHT31;67756;51.982;5.648;2023-03-01T16:59:53;13.0;28.9